sensor_id;sensor_type;location;lat;lon;timestamp;pressure;altitude;pressure_sealevel;temperature;humidity
31082;BME280;17737;52.586;13.284;2023-03-05T00:01:38;101003.78;;;2.25;87.09
31082;BME280;17737;52.586;13.284;2023-03-05T00:04:09;101009.44;;;2.21;87.59
31082;BME280;17737;52.586;13.284;2023-03-05T00:06:39;101007.88;;;2.06;87.74
31082;BME280;17737;52.586;13.284;2023-03-05T00:09:07;101004.47;;;2.04;87.68
31082;BME280;17737;52.586;13.284;2023-03-05T00:11:35;100997.53;;;2.14;88.10
31082;BME280;17737;52.586;13.284;2023-03-05T00:14:04;100995.81;;;2.13;88.26
31082;BME280;17737;52.586;13.284;2023-03-05T00:16:34;100993.41;;;2.10;88.17
31082;BME280;17737;52.586;13.284;2023-03-05T00:19:02;100988.19;;;2.08;88.53
31082;BME280;17737;52.586;13.284;2023-03-05T00:21:32;100983.09;;;2.05;88.34
31082;BME280;17737;52.586;13.284;2023-03-05T00:24:03;100982.75;;;2.10;88.87
31082;BME280;17737;52.586;13.284;2023-03-05T00:26:35;100975.66;;;2.10;88.13
31082;BME280;17737;52.586;13.284;2023-03-05T00:29:06;100971.91;;;2.13;88.53
31082;BME280;17737;52.586;13.284;2023-03-05T00:31:36;100964.38;;;2.07;88.03
31082;BME280;17737;52.586;13.284;2023-03-05T00:34:06;100964.28;;;2.08;87.98
31082;BME280;17737;52.586;13.284;2023-03-05T00:36:38;100967.56;;;2.12;87.79
31082;BME280;17737;52.586;13.284;2023-03-05T00:39:07;100963.34;;;2.09;86.77
31082;BME280;17737;52.586;13.284;2023-03-05T00:41:36;100956.94;;;2.12;87.12
31082;BME280;17737;52.586;13.284;2023-03-05T00:44:04;100953.31;;;2.13;86.51
31082;BME280;17737;52.586;13.284;2023-03-05T00:46:35;100948.00;;;2.13;85.74
31082;BME280;17737;52.586;13.284;2023-03-05T00:49:03;100951.63;;;2.12;85.42
31082;BME280;17737;52.586;13.284;2023-03-05T00:51:32;100945.75;;;2.19;84.88
31082;BME280;17737;52.586;13.284;2023-03-05T00:54:00;100944.38;;;2.14;84.24
31082;BME280;17737;52.586;13.284;2023-03-05T00:56:28;100944.28;;;2.15;83.67
31082;BME280;17737;52.586;13.284;2023-03-05T00:58:56;100934.50;;;2.16;83.05
31082;BME280;17737;52.586;13.284;2023-03-05T01:01:24;100934.69;;;2.13;82.15
31082;BME280;17737;52.586;13.284;2023-03-05T01:03:55;100927.34;;;2.16;82.00
31082;BME280;17737;52.586;13.284;2023-03-05T01:06:24;100918.88;;;2.11;80.96
31082;BME280;17737;52.586;13.284;2023-03-05T01:08:53;100911.88;;;2.10;79.81
31082;BME280;17737;52.586;13.284;2023-03-05T01:11:21;100915.16;;;2.14;79.59
31082;BME280;17737;52.586;13.284;2023-03-05T01:13:49;100908.13;;;2.13;78.94
31082;BME280;17737;52.586;13.284;2023-03-05T01:16:17;100920.69;;;2.11;78.00
31082;BME280;17737;52.586;13.284;2023-03-05T01:18:45;100916.94;;;2.13;78.17
31082;BME280;17737;52.586;13.284;2023-03-05T01:21:15;100908.56;;;2.07;76.52
31082;BME280;17737;52.586;13.284;2023-03-05T01:23:43;100908.91;;;2.02;75.25
31082;BME280;17737;52.586;13.284;2023-03-05T01:26:11;100915.06;;;2.03;75.80
31082;BME280;17737;52.586;13.284;2023-03-05T01:28:39;100903.59;;;2.02;74.80
31082;BME280;17737;52.586;13.284;2023-03-05T01:31:08;100914.13;;;2.04;74.50
31082;BME280;17737;52.586;13.284;2023-03-05T01:33:36;100904.88;;;1.97;74.35
31082;BME280;17737;52.586;13.284;2023-03-05T01:36:08;100903.50;;;2.04;74.08
31082;BME280;17737;52.586;13.284;2023-03-05T01:38:43;100909.34;;;1.96;73.67
31082;BME280;17737;52.586;13.284;2023-03-05T01:41:14;100900.75;;;1.93;73.26
31082;BME280;17737;52.586;13.284;2023-03-05T01:43:45;100896.28;;;1.93;71.96
31082;BME280;17737;52.586;13.284;2023-03-05T01:46:34;100897.78;;;1.85;71.57
31082;BME280;17737;52.586;13.284;2023-03-05T01:49:07;100902.69;;;1.78;71.33
31082;BME280;17737;52.586;13.284;2023-03-05T01:51:51;100893.88;;;1.78;71.10
31082;BME280;17737;52.586;13.284;2023-03-05T01:54:29;100889.66;;;1.75;71.15
31082;BME280;17737;52.586;13.284;2023-03-05T01:57:08;100878.16;;;1.75;70.54
31082;BME280;17737;52.586;13.284;2023-03-05T01:59:42;100886.88;;;1.64;70.56
31082;BME280;17737;52.586;13.284;2023-03-05T02:02:15;100887.97;;;1.62;69.84
31082;BME280;17737;52.586;13.284;2023-03-05T02:04:50;100880.31;;;1.57;69.46
31082;BME280;17737;52.586;13.284;2023-03-05T02:07:21;100880.75;;;1.51;69.43
31082;BME280;17737;52.586;13.284;2023-03-05T02:09:51;100869.91;;;1.54;68.91
31082;BME280;17737;52.586;13.284;2023-03-05T02:12:20;100883.06;;;1.56;68.89
31082;BME280;17737;52.586;13.284;2023-03-05T02:14:50;100877.66;;;1.57;68.40
31082;BME280;17737;52.586;13.284;2023-03-05T02:17:26;100873.53;;;1.53;68.31
31082;BME280;17737;52.586;13.284;2023-03-05T02:20:01;100859.28;;;1.54;68.11
31082;BME280;17737;52.586;13.284;2023-03-05T02:22:33;100868.81;;;1.57;68.71
31082;BME280;17737;52.586;13.284;2023-03-05T02:25:11;100869.03;;;1.54;68.20
31082;BME280;17737;52.586;13.284;2023-03-05T02:27:42;100859.06;;;1.57;68.15
31082;BME280;17737;52.586;13.284;2023-03-05T02:30:17;100862.34;;;1.48;68.16
31082;BME280;17737;52.586;13.284;2023-03-05T02:32:45;100849.72;;;1.52;67.77
31082;BME280;17737;52.586;13.284;2023-03-05T02:35:13;100856.75;;;1.53;67.70
31082;BME280;17737;52.586;13.284;2023-03-05T02:37:42;100856.09;;;1.49;67.57
31082;BME280;17737;52.586;13.284;2023-03-05T02:40:12;100850.78;;;1.49;68.08
31082;BME280;17737;52.586;13.284;2023-03-05T02:42:41;100837.63;;;1.48;68.21
31082;BME280;17737;52.586;13.284;2023-03-05T02:45:10;100834.75;;;1.51;68.11
31082;BME280;17737;52.586;13.284;2023-03-05T02:47:39;100844.50;;;1.50;68.50
31082;BME280;17737;52.586;13.284;2023-03-05T02:50:09;100831.34;;;1.49;69.16
31082;BME280;17737;52.586;13.284;2023-03-05T02:52:38;100831.34;;;1.49;68.52
31082;BME280;17737;52.586;13.284;2023-03-05T02:55:08;100830.72;;;1.45;68.72
31082;BME280;17737;52.586;13.284;2023-03-05T02:57:36;100836.56;;;1.50;68.90
31082;BME280;17737;52.586;13.284;2023-03-05T03:00:06;100822.75;;;1.45;69.09
31082;BME280;17737;52.586;13.284;2023-03-05T03:02:35;100821.94;;;1.45;68.98
31082;BME280;17737;52.586;13.284;2023-03-05T03:05:03;100828.69;;;1.49;68.76
31082;BME280;17737;52.586;13.284;2023-03-05T03:07:32;100813.63;;;1.49;69.02
31082;BME280;17737;52.586;13.284;2023-03-05T03:10:01;100817.44;;;1.58;69.10
31082;BME280;17737;52.586;13.284;2023-03-05T03:12:30;100819.34;;;1.56;68.80
31082;BME280;17737;52.586;13.284;2023-03-05T03:14:59;100810.41;;;1.57;69.29
31082;BME280;17737;52.586;13.284;2023-03-05T03:17:27;100810.63;;;1.54;69.45
31082;BME280;17737;52.586;13.284;2023-03-05T03:19:55;100813.06;;;1.57;69.23
31082;BME280;17737;52.586;13.284;2023-03-05T03:22:23;100808.19;;;1.63;68.77
31082;BME280;17737;52.586;13.284;2023-03-05T03:24:51;100803.19;;;1.59;69.42
31082;BME280;17737;52.586;13.284;2023-03-05T03:27:20;100798.22;;;1.54;69.31
31082;BME280;17737;52.586;13.284;2023-03-05T03:29:49;100796.59;;;1.64;69.44
31082;BME280;17737;52.586;13.284;2023-03-05T03:32:17;100801.50;;;1.58;69.41
31082;BME280;17737;52.586;13.284;2023-03-05T03:34:45;100799.34;;;1.63;69.54
31082;BME280;17737;52.586;13.284;2023-03-05T03:37:14;100792.78;;;1.56;69.20
31082;BME280;17737;52.586;13.284;2023-03-05T03:39:42;100797.25;;;1.55;69.55
31082;BME280;17737;52.586;13.284;2023-03-05T03:42:10;100791.81;;;1.57;70.04
31082;BME280;17737;52.586;13.284;2023-03-05T03:44:38;100781.44;;;1.54;70.39
31082;BME280;17737;52.586;13.284;2023-03-05T03:47:07;100789.50;;;1.52;71.00
31082;BME280;17737;52.586;13.284;2023-03-05T03:49:35;100780.28;;;1.45;71.21
31082;BME280;17737;52.586;13.284;2023-03-05T03:52:04;100785.69;;;1.44;71.32
31082;BME280;17737;52.586;13.284;2023-03-05T03:54:32;100783.38;;;1.39;71.77
31082;BME280;17737;52.586;13.284;2023-03-05T03:57:01;100775.72;;;1.35;72.13
31082;BME280;17737;52.586;13.284;2023-03-05T03:59:29;100770.88;;;1.29;72.54
31082;BME280;17737;52.586;13.284;2023-03-05T04:01:57;100771.22;;;1.24;72.49
31082;BME280;17737;52.586;13.284;2023-03-05T04:04:27;100761.31;;;1.26;72.67
31082;BME280;17737;52.586;13.284;2023-03-05T04:06:55;100775.03;;;1.20;72.81
31082;BME280;17737;52.586;13.284;2023-03-05T04:09:23;100760.16;;;1.17;73.66
31082;BME280;17737;52.586;13.284;2023-03-05T04:11:51;100765.69;;;1.14;73.95
31082;BME280;17737;52.586;13.284;2023-03-05T04:14:19;100753.63;;;1.10;74.11
31082;BME280;17737;52.586;13.284;2023-03-05T04:16:47;100756.03;;;1.13;74.32
31082;BME280;17737;52.586;13.284;2023-03-05T04:19:15;100761.69;;;1.09;74.65
31082;BME280;17737;52.586;13.284;2023-03-05T04:21:45;100757.66;;;1.03;75.03
31082;BME280;17737;52.586;13.284;2023-03-05T04:24:13;100747.88;;;1.04;75.33
31082;BME280;17737;52.586;13.284;2023-03-05T04:26:40;100749.06;;;1.00;75.15
31082;BME280;17737;52.586;13.284;2023-03-05T04:29:09;100751.06;;;0.96;75.67
31082;BME280;17737;52.586;13.284;2023-03-05T04:31:37;100748.19;;;0.99;75.62
31082;BME280;17737;52.586;13.284;2023-03-05T04:34:04;100744.78;;;0.97;76.03
31082;BME280;17737;52.586;13.284;2023-03-05T04:36:32;100740.88;;;0.90;76.45
31082;BME280;17737;52.586;13.284;2023-03-05T04:39:02;100746.00;;;0.93;76.46
31082;BME280;17737;52.586;13.284;2023-03-05T04:41:31;100740.16;;;0.88;76.66
31082;BME280;17737;52.586;13.284;2023-03-05T04:43:59;100732.19;;;0.88;76.66
31082;BME280;17737;52.586;13.284;2023-03-05T04:46:27;100735.03;;;0.85;76.86
31082;BME280;17737;52.586;13.284;2023-03-05T04:48:56;100733.88;;;0.89;77.29
31082;BME280;17737;52.586;13.284;2023-03-05T04:51:25;100738.44;;;0.87;77.17
31082;BME280;17737;52.586;13.284;2023-03-05T04:53:53;100738.44;;;0.87;77.33
31082;BME280;17737;52.586;13.284;2023-03-05T04:56:22;100729.75;;;0.85;77.29
31082;BME280;17737;52.586;13.284;2023-03-05T04:58:50;100716.19;;;0.90;77.19
31082;BME280;17737;52.586;13.284;2023-03-05T05:01:18;100730.50;;;0.87;77.89
31082;BME280;17737;52.586;13.284;2023-03-05T05:03:46;100724.44;;;0.85;77.99
31082;BME280;17737;52.586;13.284;2023-03-05T05:06:14;100724.78;;;0.81;77.87
31082;BME280;17737;52.586;13.284;2023-03-05T05:08:42;100727.31;;;0.82;77.54
31082;BME280;17737;52.586;13.284;2023-03-05T05:11:13;100730.06;;;0.81;78.18
31082;BME280;17737;52.586;13.284;2023-03-05T05:13:42;100726.38;;;0.83;78.10
31082;BME280;17737;52.586;13.284;2023-03-05T05:16:10;100729.31;;;0.79;78.32
31082;BME280;17737;52.586;13.284;2023-03-05T05:18:38;100727.53;;;0.79;78.16
31082;BME280;17737;52.586;13.284;2023-03-05T05:21:07;100727.13;;;0.73;78.54
31082;BME280;17737;52.586;13.284;2023-03-05T05:23:36;100727.53;;;0.79;78.11
31082;BME280;17737;52.586;13.284;2023-03-05T05:26:06;100724.13;;;0.77;78.60
31082;BME280;17737;52.586;13.284;2023-03-05T05:28:35;100728.91;;;0.72;78.98
31082;BME280;17737;52.586;13.284;2023-03-05T05:31:07;100716.63;;;0.71;78.84
31082;BME280;17737;52.586;13.284;2023-03-05T05:33:36;100719.47;;;0.68;79.15
31082;BME280;17737;52.586;13.284;2023-03-05T05:36:07;100719.56;;;0.67;79.13
31082;BME280;17737;52.586;13.284;2023-03-05T05:38:37;100726.78;;;0.65;79.64
31082;BME280;17737;52.586;13.284;2023-03-05T05:41:07;100720.31;;;0.69;79.54
31082;BME280;17737;52.586;13.284;2023-03-05T05:43:38;100720.97;;;0.72;79.50
31082;BME280;17737;52.586;13.284;2023-03-05T05:46:11;100722.03;;;0.70;80.06
31082;BME280;17737;52.586;13.284;2023-03-05T05:48:40;100725.41;;;0.72;79.32
31082;BME280;17737;52.586;13.284;2023-03-05T05:51:11;100727.94;;;0.73;79.78
31082;BME280;17737;52.586;13.284;2023-03-05T05:53:41;100733.06;;;0.76;79.53
31082;BME280;17737;52.586;13.284;2023-03-05T05:56:10;100731.13;;;0.78;79.92
31082;BME280;17737;52.586;13.284;2023-03-05T05:58:39;100729.22;;;0.80;79.56
31082;BME280;17737;52.586;13.284;2023-03-05T06:01:14;100728.56;;;0.77;79.27
31082;BME280;17737;52.586;13.284;2023-03-05T06:03:43;100730.94;;;0.81;79.62
31082;BME280;17737;52.586;13.284;2023-03-05T06:06:16;100726.56;;;0.80;79.36
31082;BME280;17737;52.586;13.284;2023-03-05T06:08:46;100728.38;;;0.80;79.67
31082;BME280;17737;52.586;13.284;2023-03-05T06:11:15;100721.59;;;0.88;79.19
31082;BME280;17737;52.586;13.284;2023-03-05T06:13:45;100718.50;;;0.94;79.31
31082;BME280;17737;52.586;13.284;2023-03-05T06:16:16;100720.09;;;0.97;78.97
31082;BME280;17737;52.586;13.284;2023-03-05T06:18:45;100716.59;;;0.96;79.24
31082;BME280;17737;52.586;13.284;2023-03-05T06:21:16;100718.28;;;0.97;79.60
31082;BME280;17737;52.586;13.284;2023-03-05T06:23:46;100715.44;;;1.00;79.26
31082;BME280;17737;52.586;13.284;2023-03-05T06:26:17;100716.59;;;1.09;78.87
31082;BME280;17737;52.586;13.284;2023-03-05T06:28:47;100718.91;;;1.13;78.94
31082;BME280;17737;52.586;13.284;2023-03-05T06:31:19;100713.03;;;1.21;79.18
31082;BME280;17737;52.586;13.284;2023-03-05T06:33:48;100720.00;;;1.35;78.57
31082;BME280;17737;52.586;13.284;2023-03-05T06:36:19;100715.91;;;1.54;77.85
31082;BME280;17737;52.586;13.284;2023-03-05T06:38:48;100724.00;;;1.53;78.00
31082;BME280;17737;52.586;13.284;2023-03-05T06:41:21;100719.72;;;1.50;77.22
31082;BME280;17737;52.586;13.284;2023-03-05T06:43:51;100712.41;;;1.54;77.56
31082;BME280;17737;52.586;13.284;2023-03-05T06:46:22;100715.78;;;1.56;77.32
31082;BME280;17737;52.586;13.284;2023-03-05T06:48:54;100707.81;;;1.56;77.59
31082;BME280;17737;52.586;13.284;2023-03-05T06:51:25;100711.84;;;1.61;77.47
31082;BME280;17737;52.586;13.284;2023-03-05T06:53:57;100715.88;;;1.67;76.81
31082;BME280;17737;52.586;13.284;2023-03-05T06:56:27;100717.03;;;1.63;76.10
31082;BME280;17737;52.586;13.284;2023-03-05T06:58:55;100718.72;;;1.64;76.56
31082;BME280;17737;52.586;13.284;2023-03-05T07:01:25;100719.34;;;1.67;76.07
31082;BME280;17737;52.586;13.284;2023-03-05T07:03:53;100716.53;;;1.58;75.99
31082;BME280;17737;52.586;13.284;2023-03-05T07:06:24;100717.16;;;1.61;75.51
31082;BME280;17737;52.586;13.284;2023-03-05T07:08:54;100717.00;;;1.75;75.50
31082;BME280;17737;52.586;13.284;2023-03-05T07:11:23;100727.78;;;1.85;75.36
31082;BME280;17737;52.586;13.284;2023-03-05T07:13:52;100722.97;;;1.90;74.43
31082;BME280;17737;52.586;13.284;2023-03-05T07:16:21;100726.81;;;1.86;75.05
31082;BME280;17737;52.586;13.284;2023-03-05T07:18:53;100734.88;;;1.84;74.87
31082;BME280;17737;52.586;13.284;2023-03-05T07:21:24;100727.72;;;1.74;74.27
31082;BME280;17737;52.586;13.284;2023-03-05T07:23:54;100728.91;;;1.70;74.54
31082;BME280;17737;52.586;13.284;2023-03-05T07:26:23;100723.38;;;1.73;74.47
31082;BME280;17737;52.586;13.284;2023-03-05T07:28:52;100730.81;;;1.68;74.64
31082;BME280;17737;52.586;13.284;2023-03-05T07:31:22;100736.31;;;1.77;74.33
31082;BME280;17737;52.586;13.284;2023-03-05T07:33:54;100736.41;;;1.76;73.86
31082;BME280;17737;52.586;13.284;2023-03-05T07:36:22;100733.84;;;1.87;73.86
31082;BME280;17737;52.586;13.284;2023-03-05T07:38:50;100733.97;;;1.96;73.61
31082;BME280;17737;52.586;13.284;2023-03-05T07:41:19;100726.09;;;1.84;73.56
31082;BME280;17737;52.586;13.284;2023-03-05T07:43:50;100728.16;;;1.91;73.41
31082;BME280;17737;52.586;13.284;2023-03-05T07:46:21;100730.16;;;2.00;73.54
31082;BME280;17737;52.586;13.284;2023-03-05T07:48:51;100727.53;;;1.88;72.88
31082;BME280;17737;52.586;13.284;2023-03-05T07:51:22;100729.78;;;2.05;72.59
31082;BME280;17737;52.586;13.284;2023-03-05T07:53:52;100728.13;;;2.04;72.28
31082;BME280;17737;52.586;13.284;2023-03-05T07:56:23;100730.94;;;1.90;72.99
31082;BME280;17737;52.586;13.284;2023-03-05T07:58:54;100737.25;;;2.00;72.82
31082;BME280;17737;52.586;13.284;2023-03-05T08:01:22;100735.72;;;2.08;72.28
31082;BME280;17737;52.586;13.284;2023-03-05T08:03:50;100735.38;;;2.13;71.55
31082;BME280;17737;52.586;13.284;2023-03-05T08:06:19;100736.09;;;2.15;71.71
31082;BME280;17737;52.586;13.284;2023-03-05T08:08:47;100728.94;;;2.28;71.66
31082;BME280;17737;52.586;13.284;2023-03-05T08:11:15;100725.03;;;2.21;70.67
31082;BME280;17737;52.586;13.284;2023-03-05T08:13:46;100725.28;;;2.29;70.91
31082;BME280;17737;52.586;13.284;2023-03-05T08:16:16;100730.78;;;2.50;70.08
31082;BME280;17737;52.586;13.284;2023-03-05T08:18:46;100721.22;;;2.47;70.42
31082;BME280;17737;52.586;13.284;2023-03-05T08:21:16;100726.19;;;2.52;70.05
31082;BME280;17737;52.586;13.284;2023-03-05T08:23:47;100719.56;;;2.57;69.37
31082;BME280;17737;52.586;13.284;2023-03-05T08:26:18;100716.44;;;2.74;68.73
31082;BME280;17737;52.586;13.284;2023-03-05T08:28:48;100714.78;;;2.84;68.11
31082;BME280;17737;52.586;13.284;2023-03-05T08:31:18;100709.91;;;2.78;68.24
31082;BME280;17737;52.586;13.284;2023-03-05T08:33:47;100704.13;;;2.84;67.21
31082;BME280;17737;52.586;13.284;2023-03-05T08:36:16;100709.53;;;2.83;66.67
31082;BME280;17737;52.586;13.284;2023-03-05T08:38:44;100686.81;;;2.79;66.74
31082;BME280;17737;52.586;13.284;2023-03-05T08:41:16;100691.75;;;2.61;66.63
31082;BME280;17737;52.586;13.284;2023-03-05T08:43:45;100691.41;;;2.77;66.05
31082;BME280;17737;52.586;13.284;2023-03-05T08:46:14;100685.72;;;2.81;65.41
31082;BME280;17737;52.586;13.284;2023-03-05T08:48:43;100685.50;;;2.84;65.00
31082;BME280;17737;52.586;13.284;2023-03-05T08:51:13;100680.66;;;2.78;65.39
31082;BME280;17737;52.586;13.284;2023-03-05T08:53:43;100676.31;;;2.77;64.49
31082;BME280;17737;52.586;13.284;2023-03-05T08:56:12;100680.16;;;2.62;64.79
31082;BME280;17737;52.586;13.284;2023-03-05T08:58:43;100678.97;;;2.77;64.00
31082;BME280;17737;52.586;13.284;2023-03-05T09:01:13;100680.88;;;3.08;63.13
31082;BME280;17737;52.586;13.284;2023-03-05T09:03:43;100665.84;;;3.40;61.94
31082;BME280;17737;52.586;13.284;2023-03-05T09:06:11;100673.66;;;3.53;60.83
31082;BME280;17737;52.586;13.284;2023-03-05T09:08:39;100679.56;;;3.67;61.23
31082;BME280;17737;52.586;13.284;2023-03-05T09:11:10;100675.22;;;3.55;60.58
31082;BME280;17737;52.586;13.284;2023-03-05T09:13:41;100671.25;;;3.39;61.03
31082;BME280;17737;52.586;13.284;2023-03-05T09:16:10;100670.44;;;3.70;60.21
31082;BME280;17737;52.586;13.284;2023-03-05T09:18:40;100666.38;;;3.55;59.83
31082;BME280;17737;52.586;13.284;2023-03-05T09:21:10;100666.81;;;3.28;60.02
31082;BME280;17737;52.586;13.284;2023-03-05T09:23:41;100663.16;;;3.40;60.33
31082;BME280;17737;52.586;13.284;2023-03-05T09:26:10;100666.25;;;3.56;60.31
31082;BME280;17737;52.586;13.284;2023-03-05T09:28:42;100659.47;;;3.52;61.00
31082;BME280;17737;52.586;13.284;2023-03-05T09:31:10;100653.81;;;3.46;61.70
31082;BME280;17737;52.586;13.284;2023-03-05T09:33:39;100647.94;;;3.31;62.00
31082;BME280;17737;52.586;13.284;2023-03-05T09:36:18;100661.25;;;3.20;62.71
31082;BME280;17737;52.586;13.284;2023-03-05T09:38:48;100655.84;;;3.11;62.31
31082;BME280;17737;52.586;13.284;2023-03-05T09:41:23;100655.31;;;3.17;62.57
31082;BME280;17737;52.586;13.284;2023-03-05T09:44:09;100656.19;;;3.28;62.21
31082;BME280;17737;52.586;13.284;2023-03-05T09:46:51;100651.31;;;3.33;61.44
31082;BME280;17737;52.586;13.284;2023-03-05T09:49:31;100647.47;;;3.58;60.90
31082;BME280;17737;52.586;13.284;2023-03-05T09:52:12;100654.66;;;3.57;60.67
31082;BME280;17737;52.586;13.284;2023-03-05T09:54:47;100646.16;;;3.52;60.64
31082;BME280;17737;52.586;13.284;2023-03-05T09:57:23;100650.00;;;3.71;60.70
31082;BME280;17737;52.586;13.284;2023-03-05T10:00:10;100653.78;;;3.57;60.05
31082;BME280;17737;52.586;13.284;2023-03-05T10:02:55;100649.69;;;3.53;59.29
31082;BME280;17737;52.586;13.284;2023-03-05T10:05:42;100643.41;;;3.54;59.55
31082;BME280;17737;52.586;13.284;2023-03-05T10:08:21;100646.69;;;3.46;59.89
31082;BME280;17737;52.586;13.284;2023-03-05T10:10:56;100640.81;;;3.63;59.71
31082;BME280;17737;52.586;13.284;2023-03-05T10:13:32;100638.16;;;3.52;59.59
31082;BME280;17737;52.586;13.284;2023-03-05T10:16:26;100636.34;;;3.53;60.06
31082;BME280;17737;52.586;13.284;2023-03-05T10:19:08;100637.38;;;3.41;60.36
31082;BME280;17737;52.586;13.284;2023-03-05T10:21:51;100636.94;;;3.56;59.44
31082;BME280;17737;52.586;13.284;2023-03-05T10:24:29;100631.84;;;3.64;58.25
31082;BME280;17737;52.586;13.284;2023-03-05T10:27:13;100628.69;;;3.71;57.84
31082;BME280;17737;52.586;13.284;2023-03-05T10:29:57;100622.91;;;3.54;59.22
31082;BME280;17737;52.586;13.284;2023-03-05T10:32:46;100630.72;;;3.35;61.26
31082;BME280;17737;52.586;13.284;2023-03-05T10:35:38;100627.50;;;3.52;62.05
31082;BME280;17737;52.586;13.284;2023-03-05T10:38:32;100627.75;;;3.07;62.55
31082;BME280;17737;52.586;13.284;2023-03-05T10:41:24;100617.31;;;3.26;62.34
31082;BME280;17737;52.586;13.284;2023-03-05T10:44:03;100617.72;;;3.10;63.09
31082;BME280;17737;52.586;13.284;2023-03-05T10:46:38;100622.44;;;3.07;63.54
31082;BME280;17737;52.586;13.284;2023-03-05T10:49:15;100600.94;;;2.99;62.89
31082;BME280;17737;52.586;13.284;2023-03-05T10:52:04;100620.13;;;3.13;63.05
31082;BME280;17737;52.586;13.284;2023-03-05T10:54:41;100612.66;;;3.39;62.81
31082;BME280;17737;52.586;13.284;2023-03-05T10:57:16;100617.31;;;3.37;63.53
31082;BME280;17737;52.586;13.284;2023-03-05T10:59:49;100613.06;;;3.34;62.94
31082;BME280;17737;52.586;13.284;2023-03-05T11:02:21;100606.28;;;3.30;63.15
31082;BME280;17737;52.586;13.284;2023-03-05T11:04:52;100601.41;;;3.35;63.41
31082;BME280;17737;52.586;13.284;2023-03-05T11:07:34;100601.19;;;3.38;63.40
31082;BME280;17737;52.586;13.284;2023-03-05T11:10:16;100602.88;;;3.71;62.99
31082;BME280;17737;52.586;13.284;2023-03-05T11:12:47;100602.78;;;3.61;62.93
31082;BME280;17737;52.586;13.284;2023-03-05T11:15:27;100608.13;;;3.61;63.52
31082;BME280;17737;52.586;13.284;2023-03-05T11:18:06;100595.44;;;3.54;63.64
31082;BME280;17737;52.586;13.284;2023-03-05T11:20:46;100604.59;;;3.40;64.17
31082;BME280;17737;52.586;13.284;2023-03-05T11:23:16;100592.16;;;3.19;63.70
31082;BME280;17737;52.586;13.284;2023-03-05T11:25:57;100600.97;;;3.30;63.59
31082;BME280;17737;52.586;13.284;2023-03-05T11:28:33;100593.06;;;3.40;63.69
31082;BME280;17737;52.586;13.284;2023-03-05T11:31:06;100588.69;;;3.50;64.05
31082;BME280;17737;52.586;13.284;2023-03-05T11:33:56;100569.25;;;3.38;64.24
31082;BME280;17737;52.586;13.284;2023-03-05T11:36:29;100586.91;;;3.39;64.93
31082;BME280;17737;52.586;13.284;2023-03-05T11:39:08;100589.47;;;3.61;64.77
31082;BME280;17737;52.586;13.284;2023-03-05T11:41:40;100586.91;;;3.71;63.98
31082;BME280;17737;52.586;13.284;2023-03-05T11:44:13;100587.22;;;3.78;64.31
31082;BME280;17737;52.586;13.284;2023-03-05T11:46:47;100578.84;;;4.03;62.97
31082;BME280;17737;52.586;13.284;2023-03-05T11:49:21;100580.50;;;4.04;62.17
31082;BME280;17737;52.586;13.284;2023-03-05T11:51:59;100576.56;;;4.19;60.94
31082;BME280;17737;52.586;13.284;2023-03-05T11:54:41;100578.63;;;4.36;60.61
31082;BME280;17737;52.586;13.284;2023-03-05T11:57:20;100572.91;;;4.50;59.37
31082;BME280;17737;52.586;13.284;2023-03-05T11:59:52;100573.47;;;4.93;57.96
31082;BME280;17737;52.586;13.284;2023-03-05T12:02:25;100566.91;;;4.97;58.00
31082;BME280;17737;52.586;13.284;2023-03-05T12:04:55;100565.06;;;4.98;57.48
31082;BME280;17737;52.586;13.284;2023-03-05T12:07:46;100558.13;;;4.76;57.55
31082;BME280;17737;52.586;13.284;2023-03-05T12:10:19;100550.91;;;4.67;57.71
31082;BME280;17737;52.586;13.284;2023-03-05T12:12:53;100552.09;;;4.44;58.26
31082;BME280;17737;52.586;13.284;2023-03-05T12:15:37;100540.97;;;4.09;58.40
31082;BME280;17737;52.586;13.284;2023-03-05T12:18:23;100537.09;;;4.22;56.76
31082;BME280;17737;52.586;13.284;2023-03-05T12:21:05;100536.75;;;4.06;56.32
31082;BME280;17737;52.586;13.284;2023-03-05T12:23:48;100528.91;;;3.84;56.89
31082;BME280;17737;52.586;13.284;2023-03-05T12:26:17;100525.97;;;3.87;57.25
31082;BME280;17737;52.586;13.284;2023-03-05T12:29:26;100519.63;;;4.09;57.45
31082;BME280;17737;52.586;13.284;2023-03-05T12:31:56;100518.31;;;3.94;58.12
31082;BME280;17737;52.586;13.284;2023-03-05T12:34:48;100514.41;;;3.98;57.89
31082;BME280;17737;52.586;13.284;2023-03-05T12:38:01;100510.50;;;4.02;57.72
31082;BME280;17737;52.586;13.284;2023-03-05T12:40:51;100506.38;;;3.88;57.84
31082;BME280;17737;52.586;13.284;2023-03-05T12:43:30;100514.69;;;4.25;57.66
31082;BME280;17737;52.586;13.284;2023-03-05T12:46:24;100510.75;;;4.68;57.28
31082;BME280;17737;52.586;13.284;2023-03-05T12:48:54;100499.91;;;5.19;56.52
31082;BME280;17737;52.586;13.284;2023-03-05T12:51:31;100499.59;;;5.41;55.79
31082;BME280;17737;52.586;13.284;2023-03-05T12:54:32;100500.72;;;5.39;54.71
31082;BME280;17737;52.586;13.284;2023-03-05T12:57:04;100497.75;;;4.94;54.07
31082;BME280;17737;52.586;13.284;2023-03-05T12:59:44;100503.53;;;4.50;51.67
31082;BME280;17737;52.586;13.284;2023-03-05T13:02:22;100493.63;;;4.22;51.83
31082;BME280;17737;52.586;13.284;2023-03-05T13:04:58;100494.19;;;4.25;52.74
31082;BME280;17737;52.586;13.284;2023-03-05T13:07:29;100497.75;;;4.35;53.58
31082;BME280;17737;52.586;13.284;2023-03-05T13:09:58;100503.34;;;4.32;53.86
31082;BME280;17737;52.586;13.284;2023-03-05T13:12:28;100502.34;;;4.24;54.57
31082;BME280;17737;52.586;13.284;2023-03-05T13:15:02;100497.47;;;4.38;53.90
31082;BME280;17737;52.586;13.284;2023-03-05T13:17:37;100491.91;;;4.60;53.89